Time;durP1;ratioP1;P1;durP2;ratioP2;P2;SDS_P1;SDS_P2;PMS_P1;PMS_P2;Temp;Humidity;BMP_temperature;BMP_pressure;BME280_temperature;BME280_humidity;BME280_pressure;Samples;Min_cycle;Max_cycle;Signal;HPM_P1;HPM_P2
2022/02/12 00:01:04;;;;;;;36.35;7.53;;;;;;;0.20;86.84;103347.66;10376961;28;20105;-78
2022/02/12 00:06:05;;;;;;;18.52;7.00;;;;;;;0.27;87.30;103334.91;10365674;28;20084;-78
2022/02/12 00:11:05;;;;;;;10.23;6.40;;;;;;;0.42;87.86;103328.88;10381061;28;20046;-78
2022/02/12 00:16:06;;;;;;;17.00;6.03;;;;;;;0.51;89.02;103315.13;10363339;28;20034;-79
2022/02/12 00:21:06;;;;;;;4.90;4.28;;;;;;;0.61;90.24;103320.88;10381446;28;20041;-78
2022/02/12 00:26:06;;;;;;;24.40;5.80;;;;;;;0.71;91.50;103316.84;10362841;28;20470;-79
2022/02/12 00:31:10;;;;;;;16.83;4.95;;;;;;;0.82;91.24;103305.63;10362105;28;20124;-79
2022/02/12 00:36:10;;;;;;;7.35;5.05;;;;;;;0.79;91.58;103308.44;10379173;28;20041;-78
2022/02/12 00:41:11;;;;;;;15.55;6.00;;;;;;;0.83;91.58;103294.91;10379490;28;20048;-78
2022/02/12 00:46:11;;;;;;;11.90;5.00;;;;;;;0.82;90.19;103298.50;10378613;28;20118;-78
2022/02/12 00:51:13;;;;;;;7.18;5.78;;;;;;;0.77;90.38;103289.88;10344786;28;20041;-78
2022/02/12 00:56:14;;;;;;;20.83;4.68;;;;;;;0.82;90.35;103290.47;10378222;28;20393;-78
2022/02/12 01:01:14;;;;;;;11.68;5.00;;;;;;;0.83;90.41;103280.69;10378941;28;20038;-79
2022/02/12 01:06:15;;;;;;;11.18;4.95;;;;;;;0.90;90.33;103274.13;10379314;28;20457;-78
2022/02/12 01:11:15;;;;;;;15.70;4.75;;;;;;;0.91;91.15;103258.03;10377363;28;20034;-79
2022/02/12 01:16:16;;;;;;;11.80;5.50;;;;;;;0.97;91.73;103262.19;10361214;28;20034;-77
2022/02/12 01:21:16;;;;;;;11.57;4.28;;;;;;;0.95;92.48;103252.53;10377280;28;20025;-77
2022/02/12 01:26:16;;;;;;;38.03;5.80;;;;;;;1.02;92.68;103249.50;10376977;28;20066;-78
2022/02/12 01:31:17;;;;;;;17.45;5.75;;;;;;;1.01;92.77;103258.44;10377857;28;20037;-78
2022/02/12 01:36:17;;;;;;;6.43;4.45;;;;;;;1.00;94.37;103246.03;10358967;28;20030;-78
2022/02/12 01:41:18;;;;;;;15.50;4.53;;;;;;;1.12;94.14;103255.22;10377863;28;20038;-77
2022/02/12 01:46:18;;;;;;;19.27;5.65;;;;;;;1.15;94.19;103255.94;10376301;28;20156;-78
2022/02/12 01:51:21;;;;;;;9.05;3.85;;;;;;;1.18;93.48;103254.88;10376660;28;20029;-79
2022/02/12 01:56:21;;;;;;;10.18;4.20;;;;;;;1.16;93.48;103244.31;10375733;28;20480;-77
2022/02/12 02:01:22;;;;;;;12.52;4.72;;;;;;;1.17;94.23;103238.03;10376352;28;20048;-79
2022/02/12 02:06:22;;;;;;;11.85;3.88;;;;;;;1.25;94.55;103226.13;10375953;28;20088;-80
2022/02/12 02:11:23;;;;;;;22.58;4.20;;;;;;;1.19;93.04;103213.94;10341868;28;20117;-77
2022/02/12 02:16:23;;;;;;;15.30;5.38;;;;;;;1.15;92.29;103213.25;10358855;28;20034;-78
2022/02/12 02:21:24;;;;;;;14.02;5.18;;;;;;;1.06;92.67;103208.38;10375379;28;20440;-78
2022/02/12 02:26:24;;;;;;;7.40;3.60;;;;;;;1.12;93.30;103205.41;10359539;28;20136;-78
2022/02/12 02:31:25;;;;;;;12.10;4.05;;;;;;;1.13;92.51;103201.78;10360369;28;20073;-78
2022/02/12 02:36:25;;;;;;;7.07;3.85;;;;;;;1.09;93.83;103192.22;10357256;28;20088;-79
2022/02/12 02:41:26;;;;;;;26.00;4.30;;;;;;;1.09;94.01;103175.34;10358065;28;20041;-78
2022/02/12 02:46:26;;;;;;;6.50;4.15;;;;;;;1.13;94.80;103166.22;10374678;28;20026;-77
2022/02/12 02:56:45;;;;;;;11.57;4.30;;;;;;;1.46;92.90;103181.38;10375022;28;20026;-77
2022/02/12 03:01:52;;;;;;;6.63;3.60;;;;;;;1.45;92.27;103169.84;10375509;28;20034;-78
2022/02/12 03:06:53;;;;;;;11.23;5.38;;;;;;;1.27;91.73;103166.34;10375206;28;20046;-78
2022/02/12 03:11:53;;;;;;;17.80;4.65;;;;;;;1.19;92.95;103149.03;10375026;28;20061;-79
2022/02/12 03:16:54;;;;;;;13.52;5.30;;;;;;;1.25;93.08;103146.03;10357020;28;20026;-79
2022/02/12 03:21:54;;;;;;;9.95;3.75;;;;;;;1.15;92.56;103140.34;10373614;28;20037;-77
2022/02/12 03:26:54;;;;;;;19.02;4.90;;;;;;;1.08;93.55;103122.91;10374340;28;20343;-78
2022/02/12 03:31:55;;;;;;;11.65;4.97;;;;;;;1.20;93.01;103116.06;10374183;28;20042;-78
2022/02/12 03:36:55;;;;;;;17.55;5.45;;;;;;;1.18;93.96;103118.78;10344602;28;20120;-77
2022/02/12 03:41:56;;;;;;;7.68;5.18;;;;;;;1.21;93.68;103123.09;10380047;28;20069;-78
2022/02/12 03:46:56;;;;;;;12.82;6.60;;;;;;;1.20;93.13;103113.38;10383389;28;20030;-77
2022/02/12 03:51:56;;;;;;;16.50;6.38;;;;;;;1.19;91.80;103107.19;10362937;28;20117;-78
2022/02/12 03:56:57;;;;;;;7.72;5.07;;;;;;;1.07;92.67;103092.69;10365149;28;20469;-78
2022/02/12 04:01:57;;;;;;;12.93;6.05;;;;;;;1.08;92.89;103090.88;10365402;28;20038;-78
2022/02/12 04:06:58;;;;;;;16.67;5.97;;;;;;;1.01;93.46;103085.00;10380870;28;20064;-78
2022/02/12 04:11:58;;;;;;;16.20;6.80;;;;;;;0.97;92.83;103080.78;10380721;28;20042;-78
2022/02/12 04:16:59;;;;;;;11.68;5.75;;;;;;;0.86;92.83;103086.69;10380264;28;20034;-79
2022/02/12 04:21:59;;;;;;;15.27;5.22;;;;;;;0.76;92.80;103076.56;10379992;28;20390;-79
2022/02/12 04:27:00;;;;;;;6.43;4.60;;;;;;;0.78;93.18;103077.38;10361781;28;20038;-79
2022/02/12 04:32:00;;;;;;;11.40;5.50;;;;;;;0.74;93.14;103063.34;10379525;28;20061;-78
2022/02/12 04:37:01;;;;;;;18.40;6.32;;;;;;;0.76;92.87;103063.25;10379026;28;20396;-77
2022/02/12 04:42:02;;;;;;;22.10;6.53;;;;;;;0.71;93.09;103050.16;10378701;28;20370;-77
2022/02/12 04:47:02;;;;;;;6.82;6.13;;;;;;;0.68;93.57;103032.50;10377824;28;20117;-78
2022/02/12 04:52:04;;;;;;;16.67;6.63;;;;;;;0.72;91.45;103037.69;10388342;28;20093;-77
2022/02/12 04:57:06;;;;;;;20.27;8.75;;;;;;;0.58;91.63;103025.94;10370373;28;20042;-78
2022/02/12 05:02:06;;;;;;;12.82;5.85;;;;;;;0.57;91.96;103013.53;10346040;28;20113;-79
2022/02/12 05:07:07;;;;;;;11.75;6.28;;;;;;;0.57;91.69;103015.34;10360892;28;20054;-77
2022/02/12 05:12:07;;;;;;;25.70;7.78;;;;;;;0.58;92.55;103004.63;10378041;28;20045;-79
2022/02/12 05:17:08;;;;;;;23.45;8.75;;;;;;;0.60;92.69;103005.38;10361353;28;20030;-78
2022/02/12 05:22:08;;;;;;;18.70;8.23;;;;;;;0.64;91.76;103006.09;10360016;28;20088;-74
2022/02/12 05:27:09;;;;;;;10.57;6.85;;;;;;;0.61;92.06;103006.28;10342396;28;20030;-74
2022/02/12 05:32:09;;;;;;;14.50;7.32;;;;;;;0.64;93.20;103004.28;10342666;28;20183;-74
2022/02/12 05:37:10;;;;;;;17.65;7.50;;;;;;;0.67;91.97;102993.47;10376275;28;20034;-74
2022/02/12 05:42:10;;;;;;;16.25;8.13;;;;;;;0.60;91.30;102996.53;10376787;28;20042;-74
2022/02/12 05:47:10;;;;;;;16.85;6.90;;;;;;;0.59;91.97;102994.81;10358715;28;20057;-74
2022/02/12 05:52:11;;;;;;;16.83;9.48;;;;;;;0.56;93.68;102987.81;10360650;28;20128;-74
2022/02/12 05:57:11;;;;;;;18.17;7.93;;;;;;;0.57;93.84;102986.03;10376028;28;20049;-74
2022/02/12 06:02:12;;;;;;;19.20;7.63;;;;;;;0.61;94.06;102979.59;10375687;28;20065;-74
2022/02/12 06:07:12;;;;;;;12.00;7.95;;;;;;;0.56;93.44;102965.66;10357807;28;20077;-74
2022/02/12 06:12:12;;;;;;;9.50;8.05;;;;;;;0.53;94.76;102956.00;10375749;28;20457;-74
2022/02/12 06:17:13;;;;;;;16.90;7.93;;;;;;;0.58;94.61;102945.09;10374876;28;20045;-74
2022/02/12 06:22:13;;;;;;;18.58;7.32;;;;;;;0.56;94.13;102934.50;10357341;28;20390;-74
2022/02/12 06:27:14;;;;;;;18.23;8.65;;;;;;;0.51;95.03;102925.91;10374808;28;20092;-74
2022/02/12 06:32:14;;;;;;;16.27;7.80;;;;;;;0.51;94.79;102928.59;10358330;28;20126;-74
2022/02/12 06:37:15;;;;;;;26.67;9.98;;;;;;;0.51;93.90;102925.91;10374702;28;20030;-74
2022/02/12 06:42:15;;;;;;;14.20;9.80;;;;;;;0.49;91.89;102922.47;10374015;28;20493;-74
2022/02/12 06:47:16;;;;;;;24.65;9.52;;;;;;;0.43;92.52;102917.47;10373996;28;20120;-73
2022/02/12 06:52:16;;;;;;;20.25;10.57;;;;;;;0.39;93.03;102913.25;10374540;28;20535;-74
2022/02/12 06:57:17;;;;;;;16.52;10.32;;;;;;;0.37;92.67;102909.78;10374131;28;20034;-74
2022/02/12 07:02:20;;;;;;;16.70;9.63;;;;;;;0.39;92.37;102907.91;10374233;28;20034;-74
2022/02/12 07:07:20;;;;;;;16.33;10.55;;;;;;;0.31;91.68;102913.63;10340479;28;20050;-74
2022/02/12 07:12:21;;;;;;;18.95;10.80;;;;;;;0.34;92.08;102910.81;10361482;28;20046;-74
2022/02/12 07:17:21;;;;;;;24.30;10.68;;;;;;;0.34;92.68;102900.16;10382689;28;20049;-74
2022/02/12 07:22:26;;;;;;;36.55;12.13;;;;;;;0.38;92.77;102908.84;10363638;28;20046;-74
2022/02/12 07:27:26;;;;;;;23.77;11.60;;;;;;;0.45;93.97;102903.13;10381610;28;20041;-74
2022/02/12 07:32:26;;;;;;;17.85;10.82;;;;;;;0.61;95.09;102900.47;10381404;28;20038;-74
2022/02/12 07:37:27;;;;;;;12.32;8.68;;;;;;;0.61;96.32;102892.47;10381005;28;20055;-74
2022/02/12 07:42:27;;;;;;;28.10;12.18;;;;;;;0.65;95.83;102885.16;10365026;28;20479;-74
2022/02/12 07:47:28;;;;;;;27.58;12.38;;;;;;;0.69;95.52;102892.03;10383831;28;20034;-74
2022/02/12 07:52:28;;;;;;;21.10;12.38;;;;;;;1.52;96.45;102898.88;10384136;28;20042;-74
2022/02/12 07:57:28;;;;;;;20.65;11.82;;;;;;;2.68;94.92;102887.41;10380227;28;20092;-74
2022/02/12 08:02:29;;;;;;;17.80;11.10;;;;;;;3.11;92.85;102887.34;10362948;28;20046;-74
2022/02/12 08:07:29;;;;;;;16.88;12.25;;;;;;;3.68;90.59;102881.75;10381885;28;20053;-74
2022/02/12 08:12:30;;;;;;;21.70;11.23;;;;;;;4.27;89.27;102874.06;10362855;28;20037;-75
2022/02/12 08:17:30;;;;;;;18.50;10.70;;;;;;;4.46;87.71;102872.78;10379839;28;20085;-73
2022/02/12 08:22:30;;;;;;;20.42;9.52;;;;;;;4.53;86.45;102868.69;10363154;28;20092;-74
2022/02/12 08:27:31;;;;;;;23.38;10.50;;;;;;;4.71;86.56;102874.56;10379335;28;20108;-76
2022/02/12 08:32:31;;;;;;;15.70;9.05;;;;;;;5.21;83.96;102867.31;10315521;28;20041;-73
2022/02/12 08:37:32;;;;;;;23.63;12.05;;;;;;;5.42;83.82;102863.00;10360471;28;20088;-76
2022/02/12 08:42:32;;;;;;;13.15;8.65;;;;;;;5.28;82.36;102863.19;10379200;28;20473;-76
2022/02/12 08:47:33;;;;;;;11.38;9.52;;;;;;;5.90;83.48;102848.63;10362441;28;20056;-77
2022/02/12 08:52:35;;;;;;;23.25;9.80;;;;;;;6.17;79.42;102840.28;10379296;28;20114;-77
2022/02/12 08:57:36;;;;;;;13.48;9.65;;;;;;;6.63;83.21;102828.50;10360326;28;20118;-76
2022/02/12 09:02:36;;;;;;;13.93;7.82;;;;;;;6.86;76.93;102815.88;10343558;28;20429;-75
2022/02/12 09:07:37;;;;;;;20.33;8.15;;;;;;;7.28;81.02;102789.91;10359022;28;20080;-75
2022/02/12 09:12:37;;;;;;;19.58;9.20;;;;;;;7.63;74.41;102778.81;10378153;28;20045;-75
2022/02/12 09:17:38;;;;;;;10.32;7.28;;;;;;;7.72;74.31;102782.53;10378103;28;20026;-75
2022/02/12 09:22:38;;;;;;;10.93;7.35;;;;;;;7.95;74.67;102777.84;10377844;28;20581;-75
2022/02/12 09:27:38;;;;;;;17.20;8.07;;;;;;;7.95;71.22;102787.78;10376831;28;20065;-75
2022/02/12 09:32:39;;;;;;;13.05;5.55;;;;;;;8.25;66.26;102784.22;10358725;28;20038;-75
2022/02/12 09:37:39;;;;;;;12.30;6.70;;;;;;;8.06;66.06;102775.06;10358296;28;20037;-75
2022/02/12 09:42:40;;;;;;;8.30;4.68;;;;;;;8.61;63.59;102769.28;10375472;28;20324;-74
2022/02/12 09:47:48;;;;;;;5.70;4.32;;;;;;;8.68;60.62;102756.97;10377123;28;20033;-75
2022/02/12 09:52:53;;;;;;;15.93;6.57;;;;;;;9.04;60.77;102754.59;10376533;28;20037;-75
2022/02/12 09:57:53;;;;;;;5.68;3.60;;;;;;;8.85;59.08;102747.31;10376400;28;20034;-75
2022/02/12 10:02:54;;;;;;;10.15;5.32;;;;;;;9.00;58.02;102762.13;10375429;28;20073;-75
2022/02/12 10:08:01;;;;;;;9.32;5.90;;;;;;;9.29;60.65;102745.91;10376380;28;20112;-75
2022/02/12 10:13:21;;;;;;;17.02;6.07;;;;;;;9.39;56.27;102726.09;10375905;28;20030;-75
2022/02/12 10:18:26;;;;;;;15.50;7.22;;;;;;;9.31;57.30;102726.81;10363378;28;20057;-75
2022/02/12 10:23:30;;;;;;;15.35;7.13;;;;;;;9.36;56.63;102729.09;10365743;28;20033;-75
2022/02/12 10:28:36;;;;;;;6.95;5.00;;;;;;;9.58;57.24;102728.75;10347889;28;20092;-75
2022/02/12 10:33:47;;;;;;;6.47;5.82;;;;;;;10.03;55.46;102725.34;10374708;28;20034;-76
2022/02/12 10:38:52;;;;;;;11.07;5.65;;;;;;;10.42;55.82;102719.75;10357771;28;20041;-75
2022/02/12 10:43:56;;;;;;;4.88;3.72;;;;;;;10.65;52.13;102721.00;10374275;28;20034;-74
2022/02/12 10:48:56;;;;;;;5.28;4.05;;;;;;;10.20;51.27;102716.41;10349077;28;20030;-76
2022/02/12 10:54:02;;;;;;;13.70;2.92;;;;;;;10.32;49.89;102716.25;10349784;28;20458;-75
2022/02/12 10:59:02;;;;;;;6.85;2.72;;;;;;;10.40;50.00;102714.50;10365037;28;20041;-76
2022/02/12 11:04:02;;;;;;;4.25;2.63;;;;;;;10.46;50.44;102699.47;10347810;28;20437;-74
2022/02/12 11:09:03;;;;;;;4.50;3.03;;;;;;;10.19;48.88;102690.34;10328359;28;20190;-73
2022/02/12 11:14:03;;;;;;;7.60;3.25;;;;;;;10.18;48.79;102674.25;10341021;28;20026;-73
2022/02/12 11:19:04;;;;;;;7.00;3.20;;;;;;;10.29;47.24;102660.53;10324414;28;20027;-73
2022/02/12 11:24:05;;;;;;;7.53;3.05;;;;;;;9.78;47.08;102656.50;10324994;28;20026;-74
2022/02/12 11:29:31;;;;;;;8.80;2.88;;;;;;;9.51;48.29;102633.00;10307098;28;20038;-76
2022/02/12 11:34:31;;;;;;;3.00;2.65;;;;;;;9.70;49.26;102619.38;10339912;28;20035;-76
2022/02/12 11:39:32;;;;;;;4.20;2.70;;;;;;;9.96;47.75;102621.38;10323045;28;20026;-75
2022/02/12 11:44:43;;;;;;;8.60;3.00;;;;;;;10.16;49.02;102608.59;10323185;28;20042;-76
2022/02/12 11:49:44;;;;;;;5.25;3.10;;;;;;;10.42;47.27;102598.72;10291214;28;20034;-76
2022/02/12 11:54:47;;;;;;;10.40;4.00;;;;;;;10.93;49.13;102580.00;10339878;28;20458;-76
2022/02/12 11:59:47;;;;;;;12.77;4.00;;;;;;;11.10;47.95;102581.81;10338874;28;20041;-76
2022/02/12 12:05:12;;;;;;;5.97;3.30;;;;;;;11.08;47.31;102567.56;10323180;28;20098;-76
2022/02/12 12:10:13;;;;;;;6.93;4.68;;;;;;;11.17;47.04;102549.50;10347097;28;20036;-76
2022/02/12 12:15:15;;;;;;;6.03;3.50;;;;;;;10.86;47.54;102549.97;10362373;28;20385;-76
2022/02/12 12:20:15;;;;;;;11.20;3.75;;;;;;;10.77;47.89;102542.78;10378604;28;20038;-76
2022/02/12 12:25:16;;;;;;;5.38;3.30;;;;;;;10.83;47.44;102516.91;10362267;28;20072;-76
2022/02/12 12:35:37;;;;;;;13.23;4.13;;;;;;;10.45;47.92;102511.75;10301365;28;20058;-75
2022/02/12 12:40:38;;;;;;;5.25;3.15;;;;;;;10.73;48.40;102498.06;10369213;28;20030;-75
2022/02/12 12:45:39;;;;;;;9.27;3.00;;;;;;;11.11;49.40;102475.06;10381368;28;20034;-74
2022/02/12 12:50:41;;;;;;;8.13;3.60;;;;;;;10.93;46.24;102479.72;10360785;28;20036;-75
2022/02/12 12:55:45;;;;;;;8.88;4.20;;;;;;;10.56;47.81;102463.72;10377943;28;20022;-74
2022/02/12 13:00:45;;;;;;;10.25;3.45;;;;;;;10.67;47.06;102456.19;10359603;28;20488;-74
2022/02/12 13:05:46;;;;;;;9.07;5.53;;;;;;;10.44;46.74;102446.91;10377709;28;20060;-76
2022/02/12 13:10:46;;;;;;;5.03;2.83;;;;;;;10.25;46.25;102413.56;10360210;28;20049;-75
2022/02/12 13:15:47;;;;;;;3.42;2.63;;;;;;;10.01;47.08;102429.63;10344910;28;20045;-73
2022/02/12 13:20:49;;;;;;;6.45;3.38;;;;;;;10.21;46.26;102428.44;10360492;28;20406;-75
2022/02/12 13:25:49;;;;;;;3.42;2.47;;;;;;;10.14;44.37;102421.94;10377288;28;20149;-76
2022/02/12 13:30:51;;;;;;;8.50;3.30;;;;;;;9.88;44.52;102402.09;10376333;28;20096;-75
2022/02/12 13:35:58;;;;;;;7.93;4.40;;;;;;;9.85;46.86;102394.31;10493190;28;20870;-75
2022/02/12 13:40:58;;;;;;;15.38;3.53;;;;;;;10.01;47.85;102394.44;10474232;28;20131;-75
2022/02/12 13:45:58;;;;;;;16.83;9.98;;;;;;;10.19;45.72;102370.88;10491792;28;20041;-75
2022/02/12 13:51:07;;;;;;;11.60;4.95;;;;;;;10.17;46.60;102377.47;10373963;27;20092;-76
2022/02/12 13:56:07;;;;;;;8.38;3.60;;;;;;;9.68;46.98;102360.84;10402967;28;20037;-75
2022/02/12 14:01:07;;;;;;;4.93;3.28;;;;;;;9.61;46.70;102359.78;10406672;28;20037;-75
2022/02/12 14:06:09;;;;;;;7.55;3.97;;;;;;;9.83;46.59;102353.88;10407200;28;20065;-75
2022/02/12 14:11:11;;;;;;;8.18;4.55;;;;;;;9.90;45.95;102352.25;10389482;28;20461;-75
2022/02/12 14:16:11;;;;;;;10.13;3.22;;;;;;;8.84;45.57;102343.09;10406182;28;20041;-78
2022/02/12 14:21:12;;;;;;;13.43;4.03;;;;;;;8.83;47.30;102339.53;10407351;28;20044;-75
2022/02/12 14:26:13;;;;;;;7.15;3.40;;;;;;;9.22;46.18;102333.03;10382602;28;20044;-74
2022/02/12 14:31:13;;;;;;;6.32;2.85;;;;;;;8.35;47.31;102320.84;10380947;28;20070;-74
2022/02/12 14:36:13;;;;;;;7.88;4.60;;;;;;;7.89;49.19;102317.16;10364648;28;20030;-74
2022/02/12 14:41:15;;;;;;;5.88;4.05;;;;;;;7.88;50.76;102302.81;10365486;28;20034;-74
2022/02/12 14:46:15;;;;;;;7.20;3.90;;;;;;;8.17;50.63;102307.28;10345297;28;20042;-74
2022/02/12 14:51:18;;;;;;;5.18;4.47;;;;;;;8.54;50.94;102301.88;10336833;28;20070;-74
2022/02/12 14:56:19;;;;;;;12.88;3.17;;;;;;;8.03;49.10;102299.66;10338539;28;20070;-74
2022/02/12 15:01:19;;;;;;;7.93;4.75;;;;;;;7.70;50.51;102296.47;10338384;28;20093;-73
2022/02/12 15:06:20;;;;;;;8.00;4.97;;;;;;;7.83;52.58;102280.81;10374682;28;20042;-74
2022/02/12 15:11:20;;;;;;;10.48;3.60;;;;;;;7.73;51.87;102271.91;10376899;28;20061;-73
2022/02/12 15:16:21;;;;;;;10.65;4.07;;;;;;;7.64;51.71;102252.03;10360399;28;20069;-74
2022/02/12 15:21:21;;;;;;;7.47;4.72;;;;;;;7.55;53.09;102244.81;10376175;28;20034;-74
2022/02/12 15:26:22;;;;;;;9.80;4.68;;;;;;;7.17;53.23;102235.78;10360218;28;20444;-74
2022/02/12 15:31:22;;;;;;;12.05;5.43;;;;;;;6.82;53.88;102248.97;10376301;28;20136;-75
2022/02/12 15:36:23;;;;;;;9.25;6.03;;;;;;;6.56;54.46;102254.88;10377678;28;20045;-73
2022/02/12 15:41:23;;;;;;;4.88;4.45;;;;;;;6.31;55.10;102239.22;10375700;28;20030;-73
2022/02/12 15:46:24;;;;;;;6.63;5.15;;;;;;;6.11;56.10;102235.59;10373495;28;20129;-74
2022/02/12 15:51:24;;;;;;;9.38;5.45;;;;;;;5.99;57.00;102224.09;10376441;28;20045;-73
2022/02/12 15:56:25;;;;;;;14.98;5.80;;;;;;;5.84;58.04;102220.91;10391359;28;20401;-74
2022/02/12 16:01:25;;;;;;;11.38;5.53;;;;;;;5.72;58.85;102222.81;10358822;28;20436;-74
2022/02/12 16:06:26;;;;;;;11.00;6.28;;;;;;;5.72;59.03;102198.63;10376019;28;20115;-73
2022/02/12 16:11:26;;;;;;;14.10;6.25;;;;;;;5.71;59.84;102199.63;10376165;28;20033;-74
2022/02/12 16:16:27;;;;;;;15.07;6.55;;;;;;;5.76;60.40;102193.81;10375927;28;20046;-74
2022/02/12 16:21:27;;;;;;;12.80;6.10;;;;;;;5.69;60.56;102182.75;10391384;28;20066;-74
2022/02/12 16:26:29;;;;;;;12.60;6.35;;;;;;;5.67;61.08;102186.56;10376071;28;20160;-73
2022/02/12 16:31:30;;;;;;;8.75;5.60;;;;;;;5.50;61.50;102172.75;10374783;28;20050;-74
2022/02/12 16:36:33;;;;;;;14.20;6.95;;;;;;;5.53;61.48;102177.03;10375479;28;20065;-74
2022/02/12 16:41:33;;;;;;;20.40;6.38;;;;;;;5.56;61.24;102166.00;10375324;28;20030;-73
2022/02/12 16:46:36;;;;;;;11.98;6.00;;;;;;;5.48;60.45;102169.34;10390393;28;20034;-74
2022/02/12 16:51:36;;;;;;;8.30;5.05;;;;;;;5.58;59.90;102156.84;10374678;28;20052;-74
2022/02/12 16:56:37;;;;;;;7.90;4.72;;;;;;;5.49;59.17;102149.56;10389809;28;20485;-73
2022/02/12 17:01:37;;;;;;;11.88;4.57;;;;;;;5.49;58.86;102140.66;10374063;28;20124;-74
2022/02/12 17:06:38;;;;;;;5.07;4.28;;;;;;;5.46;58.24;102132.88;10374078;28;20144;-74
2022/02/12 17:11:38;;;;;;;12.82;4.90;;;;;;;5.51;59.25;102136.00;10373967;28;20038;-73
2022/02/12 17:16:38;;;;;;;8.98;5.78;;;;;;;5.34;59.33;102124.03;10374500;28;20069;-73
2022/02/12 17:21:39;;;;;;;12.88;6.43;;;;;;;5.35;59.77;102110.47;10390157;28;20463;-74
2022/02/12 17:26:42;;;;;;;8.65;5.75;;;;;;;5.32;60.03;102121.47;10390016;28;20034;-74
2022/02/12 17:31:43;;;;;;;9.95;6.82;;;;;;;5.28;60.90;102122.72;10372991;28;20061;-74
2022/02/12 17:36:43;;;;;;;16.83;5.63;;;;;;;5.24;61.25;102121.31;10389342;28;20038;-74
2022/02/12 17:41:44;;;;;;;9.77;5.20;;;;;;;5.17;61.56;102116.56;10373535;28;20045;-74
2022/02/12 17:46:47;;;;;;;16.38;6.03;;;;;;;5.03;62.44;102113.25;10373883;28;20037;-74
2022/02/12 17:51:48;;;;;;;7.30;5.18;;;;;;;4.96;62.30;102124.66;10373933;28;20141;-74
2022/02/12 17:56:48;;;;;;;10.70;5.65;;;;;;;4.94;62.94;102111.34;10372464;28;20102;-74
2022/02/12 18:01:49;;;;;;;19.48;6.85;;;;;;;4.95;63.09;102102.34;10372949;28;20038;-74
2022/02/12 18:06:49;;;;;;;8.80;5.72;;;;;;;4.94;63.09;102094.41;10372286;28;20049;-74
2022/02/12 18:11:50;;;;;;;11.13;4.93;;;;;;;4.88;62.78;102085.03;10371795;28;20061;-73
2022/02/12 18:16:52;;;;;;;13.95;5.55;;;;;;;4.92;62.57;102081.13;10355927;28;20034;-73
2022/02/12 18:21:52;;;;;;;6.47;4.72;;;;;;;4.92;61.93;102072.22;10379364;28;20034;-73
2022/02/12 18:26:53;;;;;;;6.70;5.20;;;;;;;4.90;62.33;102070.50;10395659;28;20037;-74
2022/02/12 18:31:53;;;;;;;6.55;4.28;;;;;;;4.80;62.28;102056.16;10379776;28;20116;-73
2022/02/12 18:36:54;;;;;;;10.23;5.93;;;;;;;4.62;63.34;102052.38;10379698;28;20046;-73
2022/02/12 18:41:54;;;;;;;11.30;4.50;;;;;;;4.43;63.71;102053.94;10380113;28;20029;-74
2022/02/12 18:46:54;;;;;;;7.18;4.10;;;;;;;4.30;64.12;102044.34;10378570;28;20053;-73
2022/02/12 18:52:04;;;;;;;8.35;3.65;;;;;;;4.29;63.98;102032.78;10379540;28;20038;-74
2022/02/12 18:57:04;;;;;;;12.50;5.45;;;;;;;4.27;64.27;102023.16;10378409;28;20037;-74
2022/02/12 19:02:08;;;;;;;4.97;4.20;;;;;;;4.27;64.50;102001.72;10378626;28;20046;-74
2022/02/12 19:07:10;;;;;;;5.65;4.20;;;;;;;4.13;64.81;102002.88;10377852;28;20034;-73
2022/02/12 19:12:13;;;;;;;9.50;5.05;;;;;;;4.20;64.92;102004.06;10378846;28;20437;-73
2022/02/12 19:17:13;;;;;;;12.13;5.03;;;;;;;4.28;64.01;101988.19;10378983;28;20103;-74
2022/02/12 19:22:14;;;;;;;16.27;5.57;;;;;;;4.29;64.17;102000.63;10378920;28;20113;-74
2022/02/12 19:27:17;;;;;;;9.63;4.95;;;;;;;4.29;64.13;101981.00;10377339;28;20034;-74
2022/02/12 19:32:18;;;;;;;9.80;4.43;;;;;;;4.32;63.75;101984.25;10378637;28;20054;-74
2022/02/12 19:37:18;;;;;;;8.95;4.20;;;;;;;4.36;63.79;101974.97;10378349;28;20117;-74
2022/02/12 19:42:19;;;;;;;11.18;4.18;;;;;;;4.29;63.12;101952.34;10377470;28;20045;-73
2022/02/12 19:47:19;;;;;;;7.97;4.45;;;;;;;4.41;63.09;101958.50;10377663;28;20497;-73
2022/02/12 19:52:20;;;;;;;7.40;4.85;;;;;;;4.42;63.49;101961.03;10375745;28;20041;-73
2022/02/12 19:57:20;;;;;;;4.30;3.53;;;;;;;4.36;63.88;101963.41;10377212;28;20076;-74
2022/02/12 20:02:20;;;;;;;9.93;6.00;;;;;;;4.35;63.97;101964.38;10376441;28;20030;-73
2022/02/12 20:07:21;;;;;;;11.55;5.20;;;;;;;4.31;64.08;101955.75;10376966;28;20042;-73
2022/02/12 20:12:21;;;;;;;7.20;5.55;;;;;;;4.24;64.47;101929.59;10375295;28;20029;-74
2022/02/12 20:17:22;;;;;;;6.93;5.18;;;;;;;4.11;64.83;101932.47;10376316;28;20474;-73
2022/02/12 20:22:23;;;;;;;9.25;5.25;;;;;;;3.96;65.63;101924.75;10376921;28;20389;-73
2022/02/12 20:27:23;;;;;;;3.15;2.95;;;;;;;3.81;66.23;101926.03;10375095;28;20183;-73
2022/02/12 20:32:24;;;;;;;9.25;5.00;;;;;;;3.83;66.15;101937.47;10374286;28;20046;-74
2022/02/12 20:37:24;;;;;;;5.47;4.97;;;;;;;3.74;67.18;101927.53;10358612;28;20387;-74
2022/02/12 20:42:24;;;;;;;6.85;5.85;;;;;;;3.68;67.72;101917.31;10375588;28;20042;-73
2022/02/12 20:47:25;;;;;;;10.45;6.28;;;;;;;3.70;67.53;101905.50;10376294;28;20034;-73
2022/02/12 20:52:26;;;;;;;8.68;4.75;;;;;;;3.61;68.45;101894.72;10375219;28;20046;-74
2022/02/12 20:57:31;;;;;;;9.23;5.85;;;;;;;3.55;68.58;101880.00;10358175;28;20069;-74
2022/02/12 21:02:31;;;;;;;10.88;6.50;;;;;;;3.45;68.91;101877.22;10373551;28;20026;-74
2022/02/12 21:07:32;;;;;;;9.75;5.18;;;;;;;3.47;68.93;101901.19;10374698;28;20064;-74
2022/02/12 21:12:33;;;;;;;9.80;5.53;;;;;;;3.39;69.53;101899.16;10390205;28;20044;-74
2022/02/12 21:17:33;;;;;;;11.30;6.68;;;;;;;3.29;69.98;101903.56;10374293;28;20033;-73
2022/02/12 21:22:34;;;;;;;11.57;5.18;;;;;;;3.23;70.16;101904.06;10374477;28;20045;-74
2022/02/12 21:27:35;;;;;;;9.57;6.18;;;;;;;3.11;71.15;101891.69;10374581;28;20041;-74
2022/02/12 21:32:37;;;;;;;12.55;8.30;;;;;;;2.97;71.90;101884.78;10373827;28;20089;-74
2022/02/12 21:37:37;;;;;;;15.48;8.57;;;;;;;2.90;71.98;101889.75;10373262;28;20080;-73
2022/02/12 21:42:37;;;;;;;14.30;8.38;;;;;;;2.86;72.77;101890.13;10373940;28;20034;-73
2022/02/12 21:47:38;;;;;;;12.32;6.47;;;;;;;2.78;73.44;101864.84;10374131;28;20042;-73
2022/02/12 21:52:39;;;;;;;13.15;8.43;;;;;;;2.80;73.58;101878.09;10375810;28;20125;-73
2022/02/12 21:57:39;;;;;;;11.95;8.55;;;;;;;2.75;73.87;101875.78;10380926;28;20120;-73
2022/02/12 22:02:40;;;;;;;11.43;7.63;;;;;;;2.71;74.36;101873.47;10382501;28;20041;-74
2022/02/12 22:07:41;;;;;;;12.27;8.77;;;;;;;2.60;75.09;101855.63;10385442;28;20457;-73
2022/02/12 22:12:41;;;;;;;12.00;8.35;;;;;;;2.49;75.79;101863.63;10384511;28;20030;-74
2022/02/12 22:17:44;;;;;;;10.70;7.65;;;;;;;2.47;75.91;101871.78;10381337;28;20060;-75
2022/02/12 22:22:44;;;;;;;15.90;8.57;;;;;;;2.45;76.48;101867.53;10380165;28;20030;-74
2022/02/12 22:27:47;;;;;;;18.83;8.02;;;;;;;2.41;76.44;101871.41;10380955;28;20046;-73
2022/02/12 22:32:48;;;;;;;13.30;9.23;;;;;;;2.39;77.17;101858.16;10379037;28;20485;-74
2022/02/12 22:37:48;;;;;;;13.80;7.82;;;;;;;2.24;78.55;101856.72;10340431;28;20053;-72
2022/02/12 22:42:48;;;;;;;10.65;8.73;;;;;;;2.31;78.32;101860.59;10419656;28;20033;-73
2022/02/12 22:47:53;;;;;;;15.98;8.95;;;;;;;2.26;78.75;101868.94;10420954;28;20033;-74
2022/02/12 22:52:53;;;;;;;15.23;9.00;;;;;;;2.28;79.76;101853.66;10419254;28;20404;-73
2022/02/12 22:57:53;;;;;;;17.90;10.38;;;;;;;2.29;79.01;101854.50;10420482;28;20044;-73
2022/02/12 23:02:54;;;;;;;11.57;8.43;;;;;;;2.19;80.49;101838.34;10420027;28;20029;-74
2022/02/12 23:07:54;;;;;;;18.52;7.53;;;;;;;2.10;81.57;101831.88;10419554;28;20448;-74
2022/02/12 23:12:55;;;;;;;14.55;10.38;;;;;;;2.13;81.40;101814.78;10419739;28;20033;-74
2022/02/12 23:17:55;;;;;;;12.70;9.43;;;;;;;2.13;80.72;101820.13;10420203;28;20393;-73